Lock Haven, PA

6:51 AM EDT on August 24, 2016 (GMT -0400)
NonFedAWOS | | Change Station

Elev 556 ft 41.14 °N, 77.42 °W | Updated 27 minutes ago

Partly Cloudy
Partly Cloudy
61 °F
Feels Like 61 °F
N
3
Wind Variable Wind from SW
Gusts 0.0 mph

Today
High -- | Low -- °F
--% Chance of Precip.
Yesterday
High -- | Low -- °F
Precip. -- in
Pressure 30.27 in
Visibility 10.0 miles
Clouds Few 500 ft
Dew Point 59 °F
Humidity 94%
Rainfall in
Snow Depth Not available.
6:28 AM 7:54 PM
Waning Gibbous, 58% visible
METAR KIPT 240954Z AUTO 00000KT 10SM FEW005 15/13 A3028 RMK AO2 SLP250 T01500133
Pressure 30.27 in
Visibility 10.0 miles
Clouds Few 500 ft
Dew Point 59 °F
Humidity 94%
Rainfall in
Snow Depth Not available.
6:28 AM 7:54 PM
Waning Gibbous, 58% visible
METAR KIPT 240954Z AUTO 00000KT 10SM FEW005 15/13 A3028 RMK AO2 SLP250 T01500133

10-Day Weather Forecast

Almanac

Astronomy

Aug. 24, 2016 Rise Set
Actual Time
Civil Twilight
Nautical Twilight
Astronomical Twilight
Moon
Length of Visible Light
Length of Day
Tomorrow will be .
, % of the Moon is Illuminated

Today's Extremes

State Highs State Lows

Community

WunderPhotos

Upload Photos

1,934,562 photos uploaded!

WunderBlog® & News

Nearby

Air Quality

  Air Quality AQ Index Pollutant
Not available.

Snow Depth

Station Depth Elevation

Earthquake Activity

City Distance Mag. Time & Date
Minimum magnitude displayed is 2.5.

Coastal Water Temperatures

Place Temperature

Stations

Nearby Weather Stations

Station Location Temp. Windchill Dew Point Humidity Wind Precip. Elev Updated Type
                   

Watches & Warnings

There are currently no watches in effect.